createdAt,value
2022-09-03T00:01:39.015Z,14.63
2022-09-03T00:04:53.060Z,14.60
2022-09-03T00:08:04.264Z,14.57
2022-09-03T00:11:14.926Z,14.53
2022-09-03T00:14:24.183Z,14.51
2022-09-03T00:17:32.182Z,14.48
2022-09-03T00:20:40.270Z,14.44
2022-09-03T00:23:45.409Z,14.39
2022-09-03T00:26:54.699Z,14.33
2022-09-03T00:30:03.479Z,14.29
2022-09-03T00:33:14.674Z,14.28
2022-09-03T00:36:21.184Z,14.24
2022-09-03T00:39:26.693Z,14.23
2022-09-03T00:42:40.907Z,14.25
2022-09-03T00:45:52.754Z,14.10
2022-09-03T00:49:22.965Z,14.02
2022-09-03T00:52:39.492Z,14.04
2022-09-03T00:55:58.824Z,13.95
2022-09-03T00:59:15.415Z,13.94
2022-09-03T01:02:28.761Z,13.96
2022-09-03T01:05:43.399Z,13.93
2022-09-03T01:09:10.395Z,13.94
2022-09-03T01:12:25.070Z,13.90
2022-09-03T01:15:37.074Z,13.90
2022-09-03T01:18:49.587Z,13.88
2022-09-03T01:22:20.917Z,13.99
2022-09-03T01:25:38.761Z,13.99
2022-09-03T01:28:56.553Z,13.96
2022-09-03T01:32:07.473Z,13.91
2022-09-03T01:35:22.624Z,13.92
2022-09-03T01:38:34.123Z,13.93
2022-09-03T01:42:09.414Z,14.05
2022-09-03T01:45:23.413Z,13.93
2022-09-03T01:48:40.912Z,13.86
2022-09-03T01:51:45.241Z,13.86
2022-09-03T01:55:07.258Z,13.83
2022-09-03T01:58:15.711Z,13.83
2022-09-03T02:01:26.194Z,13.77
2022-09-03T02:04:29.301Z,13.70
2022-09-03T02:07:34.856Z,13.68
2022-09-03T02:10:42.435Z,13.66
2022-09-03T02:13:49.463Z,13.66
2022-09-03T02:16:54.486Z,13.60
2022-09-03T02:19:57.523Z,13.57
2022-09-03T02:23:00.797Z,13.58
2022-09-03T02:26:04.818Z,13.64
2022-09-03T02:29:07.758Z,13.55
2022-09-03T02:32:11.841Z,13.49
2022-09-03T02:35:14.696Z,13.50
2022-09-03T02:38:19.218Z,13.50
2022-09-03T02:41:22.911Z,13.51
2022-09-03T02:44:31.671Z,13.46
2022-09-03T02:47:39.409Z,13.38
2022-09-03T02:50:42.826Z,13.39
2022-09-03T02:53:45.703Z,13.40
2022-09-03T02:56:49.766Z,13.39
2022-09-03T02:59:52.660Z,13.40
2022-09-03T03:02:57.531Z,13.40
2022-09-03T03:06:03.511Z,13.40
2022-09-03T03:09:07.052Z,13.36
2022-09-03T03:12:10.542Z,13.32
2022-09-03T03:15:13.215Z,13.32
2022-09-03T03:18:17.736Z,13.32
2022-09-03T03:21:20.862Z,13.33
2022-09-03T03:24:23.700Z,13.34
2022-09-03T03:27:27.838Z,13.33
2022-09-03T03:30:31.004Z,13.44
2022-09-03T03:33:35.382Z,13.37
2022-09-03T03:36:38.278Z,13.36
2022-09-03T03:39:40.978Z,13.32
2022-09-03T03:42:44.336Z,13.50
2022-09-03T03:45:57.707Z,13.47
2022-09-03T03:49:02.833Z,13.40
2022-09-03T03:52:05.664Z,13.38
2022-09-03T03:55:08.874Z,13.63
2022-09-03T03:58:11.652Z,13.58
2022-09-03T04:01:16.979Z,13.53
2022-09-03T04:04:21.175Z,13.38
2022-09-03T04:07:23.837Z,13.37
2022-09-03T04:10:26.555Z,13.27
2022-09-03T04:13:30.828Z,13.41
2022-09-03T04:16:33.994Z,13.49
2022-09-03T04:19:38.422Z,13.74
2022-09-03T04:22:41.283Z,13.63
2022-09-03T04:25:45.000Z,13.60
2022-09-03T04:28:48.582Z,13.62
2022-09-03T04:32:08.606Z,13.55
2022-09-03T04:35:12.770Z,13.63
2022-09-03T04:38:15.413Z,13.60
2022-09-03T04:41:19.955Z,13.76
2022-09-03T04:44:22.575Z,13.65
2022-09-03T04:47:25.484Z,13.88
2022-09-03T04:50:30.936Z,13.76
2022-09-03T04:53:35.117Z,13.68
2022-09-03T04:56:39.779Z,13.78
2022-09-03T04:59:42.898Z,13.81
2022-09-03T05:02:47.032Z,13.92
2022-09-03T05:05:56.688Z,13.77
2022-09-03T05:09:00.198Z,13.84
2022-09-03T05:12:02.858Z,13.76
2022-09-03T05:15:06.722Z,13.87
2022-09-03T05:18:09.389Z,14.18
2022-09-03T05:21:15.502Z,13.91
2022-09-03T05:24:18.641Z,13.94
2022-09-03T05:27:21.364Z,13.90
2022-09-03T05:30:24.406Z,14.01
2022-09-03T05:33:28.027Z,13.99
2022-09-03T05:36:34.658Z,14.01
2022-09-03T05:39:37.713Z,14.21
2022-09-03T05:42:40.420Z,14.13
2022-09-03T05:45:43.313Z,14.15
2022-09-03T05:48:46.026Z,14.21
2022-09-03T05:51:50.142Z,14.12
2022-09-03T05:54:52.788Z,14.27
2022-09-03T05:57:55.713Z,14.57
2022-09-03T06:00:58.611Z,14.86
2022-09-03T06:04:03.393Z,15.16
2022-09-03T06:07:07.521Z,15.01
2022-09-03T06:10:12.838Z,15.24
2022-09-03T06:13:15.880Z,15.28
2022-09-03T06:16:18.595Z,15.48
2022-09-03T06:19:31.884Z,15.70
2022-09-03T06:22:35.868Z,16.10
2022-09-03T06:25:38.652Z,16.14
2022-09-03T06:28:43.424Z,15.85
2022-09-03T06:31:46.326Z,15.85
2022-09-03T06:34:48.991Z,16.01
2022-09-03T06:37:53.250Z,16.22
2022-09-03T06:40:56.966Z,16.38
2022-09-03T06:44:02.412Z,16.97
2022-09-03T06:47:05.290Z,17.46
2022-09-03T06:50:08.632Z,17.41
2022-09-03T06:53:12.625Z,17.70
2022-09-03T06:56:17.407Z,17.53
2022-09-03T06:59:20.033Z,17.42
2022-09-03T07:02:23.374Z,17.43
2022-09-03T07:05:28.647Z,18.12
2022-09-03T07:08:33.502Z,18.46
2022-09-03T07:11:37.505Z,18.63
2022-09-03T07:14:40.311Z,19.18
2022-09-03T07:17:42.940Z,19.82
2022-09-03T07:20:45.685Z,20.30
2022-09-03T07:23:51.715Z,20.09
2022-09-03T07:26:55.048Z,19.70
2022-09-03T07:29:57.686Z,19.39
2022-09-03T07:33:04.201Z,19.76
2022-09-03T07:36:09.343Z,20.11
2022-09-03T07:42:16.600Z,20.48
2022-09-03T07:45:19.633Z,20.88
2022-09-03T07:48:22.433Z,21.06
2022-09-03T07:51:27.893Z,20.65
2022-09-03T07:54:31.883Z,20.68
2022-09-03T07:57:34.891Z,20.21
2022-09-03T08:00:37.553Z,20.02
2022-09-03T08:03:44.379Z,19.59
2022-09-03T08:06:48.223Z,19.42
2022-09-03T08:09:52.362Z,19.26
2022-09-03T08:12:55.173Z,19.48
2022-09-03T08:16:00.255Z,19.43
2022-09-03T08:19:03.190Z,19.47
2022-09-03T08:22:06.107Z,19.69
2022-09-03T08:25:13.737Z,19.66
2022-09-03T08:28:16.677Z,20.42
2022-09-03T08:31:21.399Z,21.47
2022-09-03T08:34:24.395Z,22.10
2022-09-03T08:37:29.336Z,22.19
2022-09-03T08:40:35.719Z,22.59
2022-09-03T08:43:55.259Z,22.41
2022-09-03T08:47:02.175Z,22.42
2022-09-03T08:50:13.147Z,22.44
2022-09-03T08:53:22.433Z,22.69
2022-09-03T08:56:29.902Z,22.87
2022-09-03T08:59:33.441Z,22.70
2022-09-03T09:02:47.275Z,23.05
2022-09-03T09:05:56.740Z,23.46
2022-09-03T09:09:08.940Z,23.68
2022-09-03T09:12:22.831Z,24.15
2022-09-03T09:15:36.656Z,24.16
2022-09-03T09:18:56.435Z,24.66
2022-09-03T09:22:03.989Z,24.61
2022-09-03T09:25:14.297Z,24.55
2022-09-03T09:28:21.317Z,24.85
2022-09-03T09:31:24.197Z,25.26
2022-09-03T09:34:27.830Z,25.39
2022-09-03T09:37:30.469Z,25.39
2022-09-03T09:40:35.651Z,25.77
2022-09-03T09:43:39.989Z,25.80
2022-09-03T09:46:43.070Z,26.03
2022-09-03T09:49:54.411Z,26.13
2022-09-03T09:53:05.473Z,25.99
2022-09-03T09:56:09.737Z,26.51
2022-09-03T09:59:16.408Z,26.68
2022-09-03T10:02:27.506Z,26.85
2022-09-03T10:05:33.730Z,26.87
2022-09-03T10:08:36.787Z,26.66
2022-09-03T10:11:42.730Z,26.56
2022-09-03T10:14:52.456Z,26.70
2022-09-03T10:18:01.642Z,26.90
2022-09-03T10:21:11.372Z,26.92
2022-09-03T10:24:32.953Z,27.00
2022-09-03T10:27:37.375Z,26.72
2022-09-03T10:31:01.311Z,26.89
2022-09-03T10:34:09.927Z,26.81
2022-09-03T10:37:22.928Z,26.71
2022-09-03T10:40:33.095Z,26.95
2022-09-03T10:44:01.083Z,26.77
2022-09-03T10:47:21.703Z,27.27
2022-09-03T10:50:29.101Z,27.57
2022-09-03T10:53:46.615Z,27.35
2022-09-03T10:57:02.995Z,26.11
2022-09-03T11:00:09.804Z,25.33
2022-09-03T11:03:31.937Z,25.12
2022-09-03T11:06:44.830Z,25.31
2022-09-03T11:09:55.180Z,25.35
2022-09-03T11:13:07.803Z,25.27
2022-09-03T11:16:16.038Z,25.10
2022-09-03T11:19:27.879Z,24.52
2022-09-03T11:22:32.292Z,24.15
2022-09-03T11:25:37.957Z,24.19
2022-09-03T11:28:49.377Z,24.22
2022-09-03T11:31:59.766Z,24.87
2022-09-03T11:35:15.277Z,24.89
2022-09-03T11:38:27.480Z,24.80
2022-09-03T11:41:35.716Z,24.85
2022-09-03T11:44:47.940Z,24.77
2022-09-03T11:47:55.332Z,24.25
2022-09-03T11:50:59.375Z,24.13
2022-09-03T11:54:04.959Z,24.66
2022-09-03T11:57:13.220Z,25.27
2022-09-03T12:00:22.595Z,25.75
2022-09-03T12:03:29.631Z,24.99
2022-09-03T12:06:49.749Z,25.14
2022-09-03T12:10:04.325Z,25.92
2022-09-03T12:13:30.775Z,25.94
2022-09-03T12:16:50.866Z,25.80
2022-09-03T12:19:55.927Z,25.42
2022-09-03T12:23:00.145Z,25.28
2022-09-03T12:26:06.349Z,25.21
2022-09-03T12:29:23.481Z,24.91
2022-09-03T12:32:37.103Z,24.65
2022-09-03T12:39:12.324Z,24.20
2022-09-03T12:42:21.852Z,24.32
2022-09-03T12:46:09.898Z,24.41
2022-09-03T12:52:27.825Z,23.80
2022-09-03T12:55:37.493Z,23.93
2022-09-03T12:58:49.871Z,23.95
2022-09-03T13:01:56.156Z,24.30
2022-09-03T13:04:59.152Z,24.04
2022-09-03T13:08:06.793Z,24.20
2022-09-03T13:11:11.218Z,24.29
2022-09-03T13:14:18.647Z,24.21
2022-09-03T13:17:56.396Z,24.58
2022-09-03T13:21:14.579Z,24.45
2022-09-03T13:24:58.474Z,25.03
2022-09-03T13:28:16.810Z,24.99
2022-09-03T13:31:31.721Z,24.96
2022-09-03T13:34:38.614Z,24.64
2022-09-03T13:37:46.282Z,24.48
2022-09-03T13:40:55.641Z,24.42
2022-09-03T13:44:05.726Z,24.10
2022-09-03T13:47:19.642Z,23.66
2022-09-03T13:50:27.251Z,23.74
2022-09-03T13:53:41.256Z,23.92
2022-09-03T13:56:52.775Z,24.01
2022-09-03T14:00:06.754Z,23.95
2022-09-03T14:03:15.542Z,23.74
2022-09-03T14:06:33.357Z,23.72
2022-09-03T14:09:43.048Z,24.01
2022-09-03T14:12:52.003Z,24.49
2022-09-03T14:16:06.069Z,24.29
2022-09-03T14:19:17.066Z,24.70
2022-09-03T14:22:24.098Z,24.63
2022-09-03T14:25:28.346Z,24.46
2022-09-03T14:28:35.442Z,24.30
2022-09-03T14:31:58.900Z,24.05
2022-09-03T14:35:16.059Z,23.77
2022-09-03T14:38:52.736Z,23.52
2022-09-03T14:42:11.993Z,23.92
2022-09-03T14:45:25.646Z,24.23
2022-09-03T14:48:58.805Z,24.33
2022-09-03T14:52:20.752Z,24.12
2022-09-03T14:55:53.169Z,24.26
2022-09-03T14:59:19.083Z,23.90
2022-09-03T15:02:54.287Z,23.55
2022-09-03T15:06:11.707Z,23.52
2022-09-03T15:09:28.703Z,23.50
2022-09-03T15:12:36.901Z,23.61
2022-09-03T15:15:55.643Z,23.68
2022-09-03T15:19:11.635Z,23.99
2022-09-03T15:22:29.613Z,23.97
2022-09-03T15:25:48.794Z,23.73
2022-09-03T15:29:04.897Z,23.70
2022-09-03T15:32:16.976Z,23.40
2022-09-03T15:35:38.120Z,23.59
2022-09-03T15:38:49.056Z,23.21
2022-09-03T15:41:55.994Z,23.07
2022-09-03T15:45:05.497Z,22.94
2022-09-03T15:48:21.361Z,22.90
2022-09-03T15:51:27.950Z,23.01
2022-09-03T15:54:44.002Z,22.96
2022-09-03T15:57:55.571Z,22.87
2022-09-03T16:01:03.329Z,22.64
2022-09-03T16:04:20.761Z,22.90
2022-09-03T16:07:27.626Z,22.74
2022-09-03T16:10:58.773Z,22.67
2022-09-03T16:14:07.743Z,22.66
2022-09-03T16:17:22.181Z,22.59
2022-09-03T16:20:29.717Z,22.64
2022-09-03T16:23:39.128Z,22.55
2022-09-03T16:26:52.180Z,22.53
2022-09-03T16:30:01.854Z,22.57
2022-09-03T16:33:21.545Z,22.47
2022-09-03T16:36:35.993Z,22.38
2022-09-03T16:39:51.938Z,22.43
2022-09-03T16:43:18.121Z,22.44
2022-09-03T16:46:37.417Z,22.62
2022-09-03T16:49:51.624Z,22.31
2022-09-03T16:53:06.172Z,22.16
2022-09-03T16:56:25.915Z,22.05
2022-09-03T16:59:48.892Z,22.10
2022-09-03T17:03:25.810Z,22.08
2022-09-03T17:06:41.661Z,22.13
2022-09-03T17:09:59.837Z,21.96
2022-09-03T17:13:19.759Z,21.94
2022-09-03T17:16:36.989Z,21.89
2022-09-03T17:19:49.697Z,21.80
2022-09-03T17:23:04.776Z,21.68
2022-09-03T17:26:13.235Z,21.66
2022-09-03T17:29:31.825Z,21.50
2022-09-03T17:33:04.131Z,21.48
2022-09-03T17:36:14.306Z,21.38
2022-09-03T17:39:46.473Z,21.30
2022-09-03T17:42:57.283Z,21.16
2022-09-03T17:46:13.438Z,21.15
2022-09-03T17:49:24.230Z,21.06
2022-09-03T17:52:32.271Z,20.91
2022-09-03T17:55:38.468Z,20.88
2022-09-03T17:58:46.023Z,20.83
2022-09-03T18:01:54.135Z,20.77
2022-09-03T18:05:03.016Z,20.66
2022-09-03T18:08:10.117Z,20.61
2022-09-03T18:11:19.653Z,20.58
2022-09-03T18:14:27.432Z,20.54
2022-09-03T18:17:37.078Z,20.52
2022-09-03T18:21:22.907Z,20.48
2022-09-03T18:24:51.056Z,20.49
2022-09-03T18:28:16.715Z,20.43
2022-09-03T18:31:37.251Z,20.42
2022-09-03T18:34:57.937Z,20.35
2022-09-03T18:38:21.233Z,20.29
2022-09-03T18:41:59.709Z,20.24
2022-09-03T18:45:41.978Z,20.20
2022-09-03T18:49:15.957Z,20.18
2022-09-03T18:52:45.557Z,20.15
2022-09-03T18:56:20.365Z,20.20
2022-09-03T19:00:02.205Z,20.12
2022-09-03T19:03:53.895Z,20.09
2022-09-03T19:07:22.360Z,20.02
2022-09-03T19:10:47.009Z,19.96
2022-09-03T19:14:10.147Z,19.96
2022-09-03T19:17:38.863Z,19.93
2022-09-03T19:21:04.000Z,19.93
2022-09-03T19:24:24.490Z,19.83
2022-09-03T19:27:59.337Z,19.78
2022-09-03T19:31:43.967Z,19.73
2022-09-03T19:35:20.469Z,19.62
2022-09-03T19:38:48.324Z,19.52
2022-09-03T19:42:15.109Z,19.50
2022-09-03T19:45:42.710Z,19.41
2022-09-03T19:49:18.299Z,19.34
2022-09-03T19:52:46.346Z,19.31
2022-09-03T19:56:11.826Z,19.28
2022-09-03T19:59:36.928Z,19.24
2022-09-03T20:02:58.928Z,19.17
2022-09-03T20:06:23.316Z,19.14
2022-09-03T20:09:51.338Z,19.15
2022-09-03T20:13:04.517Z,19.11
2022-09-03T20:16:14.263Z,19.10
2022-09-03T20:19:26.424Z,19.13
2022-09-03T20:22:34.468Z,19.03
2022-09-03T20:25:58.804Z,18.98
2022-09-03T20:29:23.749Z,18.97
2022-09-03T20:32:48.890Z,19.04
2022-09-03T20:36:08.315Z,18.86
2022-09-03T20:39:25.418Z,18.77
2022-09-03T20:42:53.769Z,18.78
2022-09-03T20:46:09.290Z,18.78
2022-09-03T20:49:20.281Z,18.79
2022-09-03T20:52:32.125Z,18.90
2022-09-03T20:55:41.778Z,18.84
2022-09-03T20:58:52.245Z,18.84
2022-09-03T21:02:01.317Z,18.80
2022-09-03T21:05:15.249Z,18.94
2022-09-03T21:08:32.668Z,18.82
2022-09-03T21:11:43.203Z,18.85
2022-09-03T21:14:52.409Z,18.83
2022-09-03T21:18:05.625Z,18.77
2022-09-03T21:21:17.481Z,18.76
2022-09-03T21:24:23.634Z,18.73
2022-09-03T21:27:42.499Z,18.73
2022-09-03T21:30:49.768Z,18.78
2022-09-03T21:33:59.330Z,18.68
2022-09-03T21:37:05.546Z,18.66
2022-09-03T21:40:13.412Z,18.62
2022-09-03T21:43:30.198Z,18.66
2022-09-03T21:46:38.887Z,18.57
2022-09-03T21:49:57.001Z,18.47
2022-09-03T21:53:08.332Z,18.46
2022-09-03T21:56:22.707Z,18.47
2022-09-03T21:59:55.172Z,18.43
2022-09-03T22:02:59.375Z,18.45
2022-09-03T22:06:07.605Z,18.39
2022-09-03T22:09:14.682Z,18.23
2022-09-03T22:12:23.376Z,18.21
2022-09-03T22:15:29.956Z,18.39
2022-09-03T22:18:37.837Z,18.37
2022-09-03T22:21:50.341Z,18.26
2022-09-03T22:25:04.684Z,18.20
2022-09-03T22:28:14.327Z,18.13
2022-09-03T22:31:25.658Z,18.30
2022-09-03T22:34:44.413Z,18.16
2022-09-03T22:38:02.294Z,18.12
2022-09-03T22:41:16.032Z,18.14
2022-09-03T22:44:32.321Z,18.12
2022-09-03T22:47:49.371Z,18.01
2022-09-03T22:50:57.747Z,18.09
2022-09-03T22:54:11.861Z,17.98
2022-09-03T22:57:16.982Z,18.06
2022-09-03T23:00:21.088Z,17.96
2022-09-03T23:03:33.976Z,18.10
2022-09-03T23:06:40.961Z,18.13
2022-09-03T23:09:46.566Z,18.13
2022-09-03T23:12:53.278Z,18.18
2022-09-03T23:16:04.089Z,18.18
2022-09-03T23:22:24.565Z,17.94
2022-09-03T23:25:33.898Z,18.03
2022-09-03T23:28:39.512Z,17.96
2022-09-03T23:31:45.034Z,17.88
2022-09-03T23:34:49.222Z,18.05
2022-09-03T23:38:06.550Z,18.10
2022-09-03T23:41:17.463Z,17.89
2022-09-03T23:44:38.188Z,17.97
2022-09-03T23:47:45.619Z,17.93
2022-09-03T23:51:01.560Z,18.04
2022-09-03T23:54:14.157Z,18.12
2022-09-03T23:57:25.335Z,17.95
